Latest Weather Observations for Bushy Park

IDT60801

Issued at 5:31 pm EDT Tuesday 31 March 2015 (issued every 30 minutes, with the page automatically refreshed every 10 minutes)

About weather observations | Map of weather stations | Latest weather observations for TAS | Other Formats
Station Details ID: 095003 Name: BUSHY PARK (BUSHY PARK ESTATES) Lat: -42.71 Lon: 146.90 Height: 27.0 m
Data from the previous 72 hours. | See also: Recent months at Bushy Park
Date/Time
EDT
Temp
°C
App
Temp
°C
Dew
Point
Rel
Hum
%
Delta-T
°C
Wind Press
QNH
hPa
Press
MSL
hPa
Rain
since 9 am
mm
Dir
 
Spd
km/h
Gust
km/h
Spd
kts
Gust
kts
31/05:30pm 20.8 19.0 10.8 52 5.5 WSW 11 17 6 9 - - 0.0
31/05:00pm 21.8 20.4 10.8 49 6.1 WNW 9 13 5 7 - - 0.0
31/04:30pm 22.2 20.8 10.9 48 6.2 NNW 9 13 5 7 - - 0.0
31/04:00pm 22.6 21.2 9.6 43 7.0 WSW 7 11 4 6 - - 0.0
31/03:30pm 23.0 21.6 11.0 46 6.7 N 9 15 5 8 - - 0.0
31/03:00pm 22.2 21.0 10.2 46 6.5 N 7 11 4 6 - - 0.0
31/02:30pm 21.5 20.0 10.6 50 6.0 N 9 13 5 7 - - 0.0
31/02:00pm 21.1 18.7 10.1 49 6.0 NNE 13 19 7 10 - - 0.0
31/01:30pm 20.3 18.2 9.7 50 5.7 N 11 17 6 9 - - 0.0
31/01:00pm 20.1 18.0 9.9 52 5.5 NNE 11 15 6 8 - - 0.0
31/12:30pm 19.0 17.6 9.4 53 5.1 N 7 13 4 7 - - 0.0
31/12:00pm 17.5 15.6 9.1 58 4.4 N 9 17 5 9 - - 0.0
31/11:30am 17.2 14.9 9.0 58 4.2 N 11 15 6 8 - - 0.0
31/11:00am 16.5 13.8 8.8 60 4.0 N 13 17 7 9 - - 0.0
31/10:30am 14.2 11.9 8.9 70 2.7 N 11 17 6 9 - - 0.0
31/10:00am 12.7 10.7 8.5 75 2.1 NNE 9 13 5 7 - - 0.0
31/09:30am 10.7 8.9 7.8 82 1.4 NE 7 9 4 5 - - 0.0
31/09:00am 9.0 8.3 6.9 87 1.0 CALM 0 0 0 0 - - 0.0
31/08:30am 6.1 5.1 5.7 97 0.2 CALM 0 0 0 0 - - 0.0
31/08:00am 4.8 3.5 4.3 97 0.2 CALM 0 0 0 0 - - 0.0
31/07:30am 3.8 2.4 3.6 99 0.1 CALM 0 6 0 3 - - 0.0
31/07:00am 4.3 2.9 3.8 97 0.2 CALM 0 2 0 1 - - 0.0
31/06:30am 4.2 2.1 3.7 97 0.2 N 4 7 2 4 - - 0.0
31/06:00am 4.8 3.5 4.3 97 0.2 CALM 0 0 0 0 - - 0.0
31/05:30am 4.7 3.0 4.2 97 0.2 NW 2 7 1 4 - - 0.0
31/05:00am 5.1 3.1 4.4 95 0.3 SSW 4 7 2 4 - - 0.0
31/04:30am 5.7 4.6 5.0 95 0.3 CALM 0 0 0 0 - - 0.0
31/04:00am 5.6 3.1 4.9 95 0.3 SSE 7 9 4 5 - - 0.0
31/03:30am 6.2 5.2 5.5 95 0.3 CALM 0 7 0 4 - - 0.0
31/03:00am 6.0 4.9 5.3 95 0.3 CALM 0 0 0 0 - - 0.0
31/02:30am 7.0 6.2 6.3 95 0.3 CALM 0 0 0 0 - - 0.0
31/02:00am 7.1 6.3 6.4 95 0.3 CALM 0 0 0 0 - - 0.0
31/01:30am 7.3 5.7 6.4 94 0.4 N 4 7 2 4 - - 0.0
31/01:00am 7.9 6.0 6.8 93 0.5 N 6 9 3 5 - - 0.0
31/12:30am 7.6 4.7 6.7 94 0.4 NW 11 13 6 7 - - 0.0
31/12:00am 8.5 6.5 7.0 90 0.7 NNW 7 11 4 6 - - 0.0
 
Date/Time
EDT
Temp
°C
App
Temp
°C
Dew
Point
Rel
Hum
%
Delta-T
°C
Wind Press
QNH
hPa
Press
MSL
hPa
Rain
since 9 am
mm
Dir
 
Spd
km/h
Gust
km/h
Spd
kts
Gust
kts
30/11:30pm 8.7 7.7 7.4 91 0.6 NNW 2 7 1 4 - - 0.0
30/11:00pm 9.1 8.5 7.4 89 0.8 CALM 0 0 0 0 - - 0.0
30/10:30pm 9.8 8.8 7.5 85 1.1 E 2 7 1 4 - - 0.0
30/10:00pm 10.5 8.6 7.6 82 1.4 ESE 7 9 4 5 - - 0.0
30/09:30pm 10.9 9.3 8.1 83 1.4 NE 6 9 3 5 - - 0.0
30/09:00pm 12.5 10.7 7.9 73 2.3 NNW 7 11 4 6 - - 0.0
30/08:30pm 13.1 11.0 8.1 71 2.5 N 9 13 5 7 - - 0.0
30/08:00pm 13.9 10.9 7.7 66 3.1 WNW 13 19 7 10 - - 0.0
30/07:30pm 14.8 12.5 7.6 62 3.6 NW 9 15 5 8 - - 0.0
30/07:00pm 15.6 13.5 8.4 62 3.6 W 9 17 5 9 - - 0.0
30/06:30pm 17.1 13.3 7.7 54 4.7 WSW 17 32 9 17 - - 0.0
30/06:00pm 18.5 14.7 7.6 49 5.5 WSW 17 33 9 18 - - 0.0
30/05:30pm 19.2 15.3 7.3 46 6.0 WSW 17 32 9 17 - - 0.0
30/05:00pm 19.6 15.2 7.6 45 6.1 WSW 20 32 11 17 - - 0.0
30/04:30pm 20.5 16.3 8.3 45 6.4 WSW 20 37 11 20 - - 0.0
30/04:00pm 20.9 16.4 8.4 44 6.5 WSW 22 35 12 19 - - 0.0
30/03:30pm 22.0 18.6 9.2 44 6.9 WSW 17 28 9 15 - - 0.0
30/03:00pm 22.1 18.4 8.1 40 7.3 WSW 17 28 9 15 - - 0.0
30/02:30pm 22.5 18.9 8.4 40 7.5 W 17 30 9 16 - - 0.0
30/02:00pm 22.0 20.0 8.7 42 7.1 W 9 15 5 8 - - 0.0
30/01:30pm 20.8 18.4 8.8 46 6.3 W 11 22 6 12 - - 0.0
30/01:00pm 21.3 18.8 9.7 47 6.2 NNW 13 22 7 12 - - 0.0
30/12:30pm 19.9 17.5 9.9 52 5.4 W 13 24 7 13 - - 0.0
30/12:00pm 18.9 16.2 10.2 57 4.7 W 15 28 8 15 - - 0.0
30/11:30am 17.9 14.7 9.8 59 4.3 W 17 32 9 17 - - 0.0
30/11:00am 18.1 16.5 10.1 59 4.3 NNE 9 11 5 6 - - 0.0
30/10:30am 17.5 15.8 10.0 61 4.0 NNE 9 13 5 7 - - 0.0
30/10:00am 16.8 14.8 10.2 65 3.5 N 11 13 6 7 - - 0.0
30/09:30am 16.3 13.5 9.9 66 3.4 NNW 15 20 8 11 - - 0.0
30/09:00am 15.0 13.5 10.7 75 2.3 N 9 15 5 8 - - 1.2
30/08:30am 14.0 12.7 10.0 77 2.1 NNW 7 15 4 8 - - 1.2
30/08:00am 13.7 11.3 8.8 72 2.5 N 11 26 6 14 - - 1.2
30/07:30am 13.8 10.2 8.2 69 2.8 NNW 17 32 9 17 - - 1.2
30/07:00am 11.0 8.5 8.2 83 1.4 NNW 11 20 6 11 - - 1.2
30/06:30am 8.9 6.3 7.9 93 0.5 N 11 15 6 8 - - 1.2
30/06:00am 8.3 6.0 7.5 95 0.4 ENE 9 13 5 7 - - 1.2
30/05:30am 7.8 7.2 7.4 97 0.2 CALM 0 0 0 0 - - 1.2
30/05:00am 8.0 6.3 7.4 96 0.3 E 6 11 3 6 - - 1.2
30/04:30am 7.8 5.8 6.9 94 0.4 S 7 15 4 8 - - 1.2
30/04:00am 7.6 5.8 7.0 96 0.3 E 6 11 3 6 - - 1.2
30/03:30am 7.8 6.4 7.2 96 0.3 ENE 4 9 2 5 - - 1.2
30/03:00am 8.5 7.6 7.7 95 0.4 SE 2 7 1 4 - - 1.2
30/02:30am 9.0 7.4 8.0 93 0.5 ESE 6 9 3 5 - - 1.2
30/02:00am 9.4 7.3 8.2 92 0.6 N 9 13 5 7 - - 1.2
30/01:30am 9.7 8.2 8.3 91 0.7 N 6 7 3 4 - - 1.2
30/01:00am 10.0 8.0 8.6 91 0.7 NNE 9 17 5 9 - - 1.2
30/12:30am 10.0 8.4 8.8 92 0.6 E 7 13 4 7 - - 1.2
30/12:00am 9.3 7.8 8.3 93 0.5 E 6 11 3 6 - - 1.2
 
Date/Time
EDT
Temp
°C
App
Temp
°C
Dew
Point
Rel
Hum
%
Delta-T
°C
Wind Press
QNH
hPa
Press
MSL
hPa
Rain
since 9 am
mm
Dir
 
Spd
km/h
Gust
km/h
Spd
kts
Gust
kts
29/11:30pm 8.5 7.6 7.7 95 0.4 E 2 7 1 4 - - 1.2
29/11:00pm 9.5 7.8 8.3 92 0.6 S 7 9 4 5 - - 1.2
29/10:30pm 10.0 8.0 8.6 91 0.7 N 9 11 5 6 - - 1.2
29/10:00pm 11.4 8.8 9.4 87 1.0 N 13 15 7 8 - - 1.2
29/09:30pm 12.0 9.9 9.7 86 1.2 NNE 11 17 6 9 - - 1.2
29/09:00pm 13.1 10.4 9.0 76 2.1 NW 13 17 7 9 - - 1.2
29/08:30pm 13.8 10.8 9.1 73 2.4 WNW 15 19 8 10 - - 1.2
29/08:00pm 13.7 11.9 9.6 76 2.1 WNW 9 15 5 8 - - 1.2
29/07:30pm 14.6 12.1 9.6 72 2.6 W 13 22 7 12 - - 1.2
29/07:00pm 15.1 12.6 9.8 70 2.8 W 13 19 7 10 - - 1.2
29/06:30pm 15.6 13.2 9.9 69 3.0 W 13 19 7 10 - - 1.2
29/06:00pm 16.2 13.8 10.0 66 3.3 W 13 26 7 14 - - 1.2
29/05:30pm 16.6 13.4 9.8 64 3.6 WSW 17 28 9 15 - - 1.2
29/05:00pm 16.9 14.2 10.2 64 3.5 W 15 28 8 15 - - 1.2
29/04:30pm 16.7 15.4 12.6 77 2.3 NW 11 17 6 9 - - 1.2
29/04:00pm 16.3 14.2 12.5 78 2.1 NW 15 26 8 14 - - 1.2
29/03:30pm 16.5 16.1 14.2 86 1.3 N 9 13 5 7 - - 1.0
29/03:00pm 15.8 15.0 13.9 88 1.1 N 11 15 6 8 - - 1.0
29/02:30pm 15.6 15.4 13.7 88 1.1 W 7 11 4 6 - - 0.8
29/02:00pm 16.5 15.5 12.2 76 2.4 W 9 15 5 8 - - 0.0
29/01:30pm 16.7 15.1 11.4 71 2.9 WSW 11 15 6 8 - - 0.0
29/01:00pm 17.1 15.6 10.6 65 3.5 W 9 13 5 7 - - 0.0
29/12:30pm 17.1 15.0 9.7 61 3.9 NW 11 17 6 9 - - 0.0
29/12:00pm 16.4 14.5 10.6 68 3.1 WNW 11 15 6 8 - - 0.0
29/11:30am 14.8 13.5 11.1 78 2.0 NW 9 13 5 7 - - 0.0
29/11:00am 15.2 11.0 9.9 70 2.8 N 22 30 12 16 - - 0.0
29/10:30am 15.2 11.1 8.8 65 3.3 NNW 20 33 11 18 - - 0.0
29/10:00am 14.6 10.4 8.3 66 3.2 NW 20 30 11 16 - - 0.0
29/09:30am 14.7 10.2 8.4 66 3.2 NNW 22 32 12 17 - - 0.0
29/09:00am 14.3 9.3 8.2 67 3.1 N 24 33 13 18 - - 0.0
29/08:30am 13.6 7.6 8.5 71 2.6 N 30 39 16 21 - - 0.0
29/08:24am 13.2 8.7 8.4 72 2.4 N 22 35 12 19 - - 0.0
29/08:00am 8.0 4.2 7.4 96 0.3 NNW 17 24 9 13 - - 0.0
29/07:30am 6.4 3.0 5.7 95 0.3 NNW 13 17 7 9 - - 0.0
29/07:00am 5.8 3.9 5.1 95 0.3 N 4 9 2 5 - - 0.0
29/06:30am 5.8 2.6 5.1 95 0.3 NW 11 15 6 8 - - 0.0
29/06:00am 5.6 2.7 4.9 95 0.3 NW 9 11 5 6 - - 0.0
29/05:30am 5.2 1.9 4.5 95 0.3 NW 11 15 6 8 - - 0.0
29/05:00am 5.2 1.9 4.7 97 0.2 NNW 11 19 6 10 - - 0.0
29/04:30am 5.1 2.5 4.4 95 0.3 SSE 7 11 4 6 - - 0.0
29/04:00am 4.3 2.9 3.6 95 0.3 CALM 0 0 0 0 - - 0.0
29/03:30am 4.7 3.0 4.0 95 0.3 NNE 2 7 1 4 - - 0.0
29/03:00am 4.9 2.5 4.4 97 0.2 NE 6 9 3 5 - - 0.0
29/02:30am 5.2 2.7 4.7 97 0.2 S 7 9 4 5 - - 0.0
29/02:00am 5.8 4.7 5.1 95 0.3 CALM 0 4 0 2 - - 0.0
29/01:30am 5.7 4.2 5.0 95 0.3 SW 2 7 1 4 - - 0.0
29/01:00am 6.6 4.5 5.7 94 0.4 NNW 6 7 3 4 - - 0.0
29/12:30am 6.1 3.9 5.2 94 0.4 NW 6 11 3 6 - - 0.0
29/12:00am 6.6 5.2 5.7 94 0.4 WNW 2 9 1 5 - - 0.0
 
Date/Time
EDT
Temp
°C
App
Temp
°C
Dew
Point
Rel
Hum
%
Delta-T
°C
Wind Press
QNH
hPa
Press
MSL
hPa
Rain
since 9 am
mm
Dir
 
Spd
km/h
Gust
km/h
Spd
kts
Gust
kts
28/11:30pm 7.0 5.7 6.1 94 0.4 N 2 11 1 6 - - 0.0
28/11:00pm 7.2 5.0 6.3 94 0.4 SW 7 9 4 5 - - 0.0
28/10:30pm 8.1 6.0 6.6 90 0.7 NNW 7 9 4 5 - - 0.0
28/10:00pm 8.8 8.2 7.3 90 0.7 CALM 0 0 0 0 - - 0.0
28/09:30pm 9.3 8.7 7.2 87 1.0 CALM 0 0 0 0 - - 0.0
28/09:00pm 10.1 7.9 7.8 86 1.1 NW 9 11 5 6 - - 0.0
28/08:30pm 11.4 9.1 7.3 76 2.0 NW 9 13 5 7 - - 0.0
28/08:00pm 11.7 9.8 7.6 76 2.0 W 7 11 4 6 - - 0.0
28/07:30pm 13.0 10.3 7.3 68 2.8 WNW 11 15 6 8 - - 0.0
28/07:00pm 14.6 12.2 7.1 60 3.7 W 9 17 5 9 - - 0.0
28/06:30pm 15.8 12.6 6.9 55 4.4 WSW 13 20 7 11 - - 0.0
28/06:00pm 17.6 14.7 6.6 48 5.4 W 11 17 6 9 - - 0.0

Other Formats:

Comma delimited format used in spreadsheet applications
http://www.bom.gov.au/fwo/IDT60801/IDT60801.94964.axf

JavaScript Object Notation format (JSON) in row-major order
http://www.bom.gov.au/fwo/IDT60801/IDT60801.94964.json